sensor_id;sensor_type;location;lat;lon;timestamp;pressure;altitude;pressure_sealevel;temperature;humidity
53011;BME280;42803;55.762;38.084;2023-04-24T00:00:09;99557.66;;;7.34;67.12
53011;BME280;42803;55.762;38.084;2023-04-24T00:02:39;99555.34;;;7.37;67.20
53011;BME280;42803;55.762;38.084;2023-04-24T00:05:09;99553.25;;;7.33;66.56
53011;BME280;42803;55.762;38.084;2023-04-24T00:07:37;99557.66;;;7.34;66.79
53011;BME280;42803;55.762;38.084;2023-04-24T00:10:08;99560.88;;;7.31;66.82
53011;BME280;42803;55.762;38.084;2023-04-24T00:12:38;99562.06;;;7.35;67.06
53011;BME280;42803;55.762;38.084;2023-04-24T00:15:09;99552.03;;;7.48;67.65
53011;BME280;42803;55.762;38.084;2023-04-24T00:17:38;99550.75;;;7.53;67.02
53011;BME280;42803;55.762;38.084;2023-04-24T00:20:08;99550.19;;;7.47;67.04
53011;BME280;42803;55.762;38.084;2023-04-24T00:22:37;99554.47;;;7.47;67.09
53011;BME280;42803;55.762;38.084;2023-04-24T00:25:08;99549.72;;;7.32;66.54
53011;BME280;42803;55.762;38.084;2023-04-24T00:27:38;99550.78;;;7.16;67.10
53011;BME280;42803;55.762;38.084;2023-04-24T00:30:08;99552.81;;;7.09;67.70
53011;BME280;42803;55.762;38.084;2023-04-24T00:32:38;99552.06;;;7.11;68.40
53011;BME280;42803;55.762;38.084;2023-04-24T00:35:07;99549.47;;;7.11;68.33
53011;BME280;42803;55.762;38.084;2023-04-24T00:37:36;99553.47;;;7.26;69.08
53011;BME280;42803;55.762;38.084;2023-04-24T00:40:06;99550.00;;;7.36;69.32
53011;BME280;42803;55.762;38.084;2023-04-24T00:42:35;99552.97;;;7.30;69.85
53011;BME280;42803;55.762;38.084;2023-04-24T00:45:07;99557.94;;;7.37;70.52
53011;BME280;42803;55.762;38.084;2023-04-24T00:47:36;99557.16;;;7.38;71.02
53011;BME280;42803;55.762;38.084;2023-04-24T00:50:07;99554.84;;;7.41;70.73
53011;BME280;42803;55.762;38.084;2023-04-24T00:52:36;99551.34;;;7.41;69.72
53011;BME280;42803;55.762;38.084;2023-04-24T00:55:09;99557.84;;;7.46;69.04
53011;BME280;42803;55.762;38.084;2023-04-24T00:57:38;99565.44;;;7.34;68.33
53011;BME280;42803;55.762;38.084;2023-04-24T01:00:10;99561.66;;;7.12;68.49
53011;BME280;42803;55.762;38.084;2023-04-24T01:02:40;99563.97;;;7.08;69.38
53011;BME280;42803;55.762;38.084;2023-04-24T01:05:13;99560.06;;;7.03;68.93
53011;BME280;42803;55.762;38.084;2023-04-24T01:07:44;99556.69;;;6.86;69.53
53011;BME280;42803;55.762;38.084;2023-04-24T01:10:16;99558.50;;;7.05;70.87
53011;BME280;42803;55.762;38.084;2023-04-24T01:12:47;99551.00;;;6.90;69.56
53011;BME280;42803;55.762;38.084;2023-04-24T01:15:18;99549.81;;;6.86;71.60
53011;BME280;42803;55.762;38.084;2023-04-24T01:17:47;99551.50;;;7.04;71.86
53011;BME280;42803;55.762;38.084;2023-04-24T01:20:17;99544.81;;;6.79;70.53
53011;BME280;42803;55.762;38.084;2023-04-24T01:22:48;99551.53;;;6.58;70.37
53011;BME280;42803;55.762;38.084;2023-04-24T01:25:17;99551.00;;;6.43;70.89
53011;BME280;42803;55.762;38.084;2023-04-24T01:27:47;99545.41;;;6.39;72.12
53011;BME280;42803;55.762;38.084;2023-04-24T01:30:16;99548.97;;;6.30;72.60
53011;BME280;42803;55.762;38.084;2023-04-24T01:32:45;99549.56;;;6.28;73.00
53011;BME280;42803;55.762;38.084;2023-04-24T01:35:14;99546.03;;;6.36;73.68
53011;BME280;42803;55.762;38.084;2023-04-24T01:37:44;99537.69;;;6.30;72.19
53011;BME280;42803;55.762;38.084;2023-04-24T01:40:14;99538.78;;;6.23;72.96
53011;BME280;42803;55.762;38.084;2023-04-24T01:42:43;99543.38;;;6.17;73.68
53011;BME280;42803;55.762;38.084;2023-04-24T01:45:13;99547.53;;;6.06;73.58
53011;BME280;42803;55.762;38.084;2023-04-24T01:47:43;99544.22;;;5.99;73.89
53011;BME280;42803;55.762;38.084;2023-04-24T01:50:13;99551.56;;;5.94;74.19
53011;BME280;42803;55.762;38.084;2023-04-24T01:52:42;99546.19;;;6.01;74.62
53011;BME280;42803;55.762;38.084;2023-04-24T01:55:11;99548.75;;;6.10;75.32
53011;BME280;42803;55.762;38.084;2023-04-24T01:57:42;99545.66;;;6.23;75.00
53011;BME280;42803;55.762;38.084;2023-04-24T02:00:11;99546.44;;;6.13;74.53
53011;BME280;42803;55.762;38.084;2023-04-24T02:02:41;99539.69;;;6.24;75.64
53011;BME280;42803;55.762;38.084;2023-04-24T02:05:14;99538.16;;;6.26;75.32
53011;BME280;42803;55.762;38.084;2023-04-24T02:07:44;99546.03;;;6.36;74.86
53011;BME280;42803;55.762;38.084;2023-04-24T02:10:13;99544.69;;;6.31;73.73
53011;BME280;42803;55.762;38.084;2023-04-24T02:12:45;99547.38;;;6.41;74.66
53011;BME280;42803;55.762;38.084;2023-04-24T02:15:15;99552.31;;;6.57;74.58
53011;BME280;42803;55.762;38.084;2023-04-24T02:17:45;99544.19;;;6.63;73.66
53011;BME280;42803;55.762;38.084;2023-04-24T02:20:14;99549.88;;;6.77;73.21
53011;BME280;42803;55.762;38.084;2023-04-24T02:22:45;99550.31;;;7.01;72.73
53011;BME280;42803;55.762;38.084;2023-04-24T02:25:14;99557.66;;;7.34;71.58
53011;BME280;42803;55.762;38.084;2023-04-24T02:27:44;99557.31;;;7.69;69.91
53011;BME280;42803;55.762;38.084;2023-04-24T02:30:14;99539.25;;;8.20;68.82
53011;BME280;42803;55.762;38.084;2023-04-24T02:32:43;99544.28;;;8.68;67.11
53011;BME280;42803;55.762;38.084;2023-04-24T02:35:12;99550.09;;;9.06;65.73
53011;BME280;42803;55.762;38.084;2023-04-24T02:37:41;99548.09;;;9.34;63.94
53011;BME280;42803;55.762;38.084;2023-04-24T02:40:12;99549.31;;;9.60;62.99
53011;BME280;42803;55.762;38.084;2023-04-24T02:42:41;99552.53;;;9.35;62.96
53011;BME280;42803;55.762;38.084;2023-04-24T02:45:12;99556.88;;;9.04;64.25
53011;BME280;42803;55.762;38.084;2023-04-24T02:47:41;99557.69;;;8.83;65.27
53011;BME280;42803;55.762;38.084;2023-04-24T02:50:10;99564.19;;;8.88;66.02
53011;BME280;42803;55.762;38.084;2023-04-24T02:52:39;99561.31;;;8.95;66.14
53011;BME280;42803;55.762;38.084;2023-04-24T02:55:08;99565.34;;;9.01;67.25
53011;BME280;42803;55.762;38.084;2023-04-24T02:57:38;99566.25;;;9.02;66.93
53011;BME280;42803;55.762;38.084;2023-04-24T03:00:08;99565.84;;;9.08;66.57
53011;BME280;42803;55.762;38.084;2023-04-24T03:02:38;99567.69;;;9.09;67.20
53011;BME280;42803;55.762;38.084;2023-04-24T03:05:08;99572.34;;;9.23;67.24
53011;BME280;42803;55.762;38.084;2023-04-24T03:07:39;99566.75;;;9.28;66.96
53011;BME280;42803;55.762;38.084;2023-04-24T03:10:09;99567.66;;;9.29;66.64
53011;BME280;42803;55.762;38.084;2023-04-24T03:12:38;99569.97;;;9.36;66.95
53011;BME280;42803;55.762;38.084;2023-04-24T03:15:08;99572.97;;;9.41;66.93
53011;BME280;42803;55.762;38.084;2023-04-24T03:17:39;99578.78;;;9.59;67.18
53011;BME280;42803;55.762;38.084;2023-04-24T03:20:08;99572.50;;;9.67;66.86
53011;BME280;42803;55.762;38.084;2023-04-24T03:22:38;99573.22;;;9.76;66.19
53011;BME280;42803;55.762;38.084;2023-04-24T03:25:09;99581.44;;;9.81;65.22
53011;BME280;42803;55.762;38.084;2023-04-24T03:27:39;99577.88;;;9.90;64.35
53011;BME280;42803;55.762;38.084;2023-04-24T03:30:34;99582.25;;;10.01;63.86
53011;BME280;42803;55.762;38.084;2023-04-24T03:33:05;99579.81;;;10.15;63.75
53011;BME280;42803;55.762;38.084;2023-04-24T03:35:38;99570.53;;;10.18;63.39
53011;BME280;42803;55.762;38.084;2023-04-24T03:38:10;99574.72;;;10.27;62.70
53011;BME280;42803;55.762;38.084;2023-04-24T03:40:39;99583.94;;;10.33;62.82
53011;BME280;42803;55.762;38.084;2023-04-24T03:43:31;99582.06;;;10.42;61.85
53011;BME280;42803;55.762;38.084;2023-04-24T03:46:02;99585.94;;;10.47;61.30
53011;BME280;42803;55.762;38.084;2023-04-24T03:48:35;99576.75;;;10.53;60.24
53011;BME280;42803;55.762;38.084;2023-04-24T03:51:06;99582.56;;;10.60;59.97
53011;BME280;42803;55.762;38.084;2023-04-24T03:53:37;99580.00;;;10.72;59.19
53011;BME280;42803;55.762;38.084;2023-04-24T03:56:07;99583.22;;;10.46;58.76
53011;BME280;42803;55.762;38.084;2023-04-24T03:58:37;99582.00;;;10.31;59.06
53011;BME280;42803;55.762;38.084;2023-04-24T04:01:07;99591.66;;;10.21;59.34
53011;BME280;42803;55.762;38.084;2023-04-24T04:03:47;99588.94;;;10.20;59.31
53011;BME280;42803;55.762;38.084;2023-04-24T04:06:20;99594.41;;;10.23;59.44
53011;BME280;42803;55.762;38.084;2023-04-24T04:08:52;99598.84;;;10.24;59.20
53011;BME280;42803;55.762;38.084;2023-04-24T04:11:21;99590.09;;;10.23;59.22
53011;BME280;42803;55.762;38.084;2023-04-24T04:13:50;99606.25;;;10.30;59.29
53011;BME280;42803;55.762;38.084;2023-04-24T04:16:22;99595.56;;;10.48;59.26
53011;BME280;42803;55.762;38.084;2023-04-24T04:18:58;99589.75;;;10.63;58.80
53011;BME280;42803;55.762;38.084;2023-04-24T04:21:27;99591.00;;;10.68;58.55
53011;BME280;42803;55.762;38.084;2023-04-24T04:24:05;99591.72;;;10.77;58.58
53011;BME280;42803;55.762;38.084;2023-04-24T04:26:39;99590.63;;;10.85;58.16
53011;BME280;42803;55.762;38.084;2023-04-24T04:29:10;99598.25;;;10.94;57.93
53011;BME280;42803;55.762;38.084;2023-04-24T04:31:43;99593.75;;;11.03;57.72
53011;BME280;42803;55.762;38.084;2023-04-24T04:34:15;99596.13;;;11.12;57.43
53011;BME280;42803;55.762;38.084;2023-04-24T04:36:44;99599.91;;;11.27;57.53
53011;BME280;42803;55.762;38.084;2023-04-24T04:39:52;99603.03;;;11.45;57.08
53011;BME280;42803;55.762;38.084;2023-04-24T04:42:24;99599.72;;;11.59;56.73
53011;BME280;42803;55.762;38.084;2023-04-24T04:44:54;99606.97;;;11.75;56.55
53011;BME280;42803;55.762;38.084;2023-04-24T04:47:35;99599.38;;;11.90;56.30
53011;BME280;42803;55.762;38.084;2023-04-24T04:50:06;99598.28;;;11.98;55.40
53011;BME280;42803;55.762;38.084;2023-04-24T04:52:35;99598.25;;;12.10;55.34
53011;BME280;42803;55.762;38.084;2023-04-24T04:55:15;99603.19;;;12.30;55.08
53011;BME280;42803;55.762;38.084;2023-04-24T04:58:07;99606.53;;;12.53;54.36
53011;BME280;42803;55.762;38.084;2023-04-24T05:00:37;99610.34;;;12.69;54.20
53011;BME280;42803;55.762;38.084;2023-04-24T05:03:27;99616.41;;;12.93;53.55
53011;BME280;42803;55.762;38.084;2023-04-24T05:06:06;99613.81;;;13.07;52.41
53011;BME280;42803;55.762;38.084;2023-04-24T05:08:38;99611.22;;;13.20;51.68
53011;BME280;42803;55.762;38.084;2023-04-24T05:11:11;99618.03;;;13.30;51.05
53011;BME280;42803;55.762;38.084;2023-04-24T05:13:41;99608.50;;;13.44;50.75
53011;BME280;42803;55.762;38.084;2023-04-24T05:16:33;99617.00;;;13.66;50.73
53011;BME280;42803;55.762;38.084;2023-04-24T05:19:05;99608.72;;;13.86;50.52
53011;BME280;42803;55.762;38.084;2023-04-24T05:21:40;99606.06;;;14.00;50.10
53011;BME280;42803;55.762;38.084;2023-04-24T05:24:11;99606.78;;;14.10;50.09
53011;BME280;42803;55.762;38.084;2023-04-24T05:27:06;99602.72;;;14.15;49.95
53011;BME280;42803;55.762;38.084;2023-04-24T05:29:39;99604.63;;;14.31;49.58
53011;BME280;42803;55.762;38.084;2023-04-24T05:32:10;99618.06;;;14.36;49.43
53011;BME280;42803;55.762;38.084;2023-04-24T05:34:38;99616.13;;;14.47;49.47
53011;BME280;42803;55.762;38.084;2023-04-24T05:37:10;99611.75;;;14.60;49.24
53011;BME280;42803;55.762;38.084;2023-04-24T05:39:39;99605.56;;;14.73;48.53
53011;BME280;42803;55.762;38.084;2023-04-24T05:42:09;99608.59;;;14.94;48.50
53011;BME280;42803;55.762;38.084;2023-04-24T05:44:38;99606.72;;;15.21;48.17
53011;BME280;42803;55.762;38.084;2023-04-24T05:47:07;99600.59;;;15.35;47.76
53011;BME280;42803;55.762;38.084;2023-04-24T05:49:37;99602.94;;;15.31;47.38
53011;BME280;42803;55.762;38.084;2023-04-24T05:55:17;99603.44;;;15.68;47.19
53011;BME280;42803;55.762;38.084;2023-04-24T05:57:55;99602.78;;;15.72;46.54
53011;BME280;42803;55.762;38.084;2023-04-24T06:00:26;99601.38;;;15.94;46.23
53011;BME280;42803;55.762;38.084;2023-04-24T06:03:03;99605.66;;;16.06;46.00
53011;BME280;42803;55.762;38.084;2023-04-24T06:05:32;99603.78;;;16.20;45.32
53011;BME280;42803;55.762;38.084;2023-04-24T06:08:04;99602.66;;;16.31;44.80
53011;BME280;42803;55.762;38.084;2023-04-24T06:10:56;99601.44;;;16.41;44.15
53011;BME280;42803;55.762;38.084;2023-04-24T06:13:25;99602.84;;;16.51;43.82
53011;BME280;42803;55.762;38.084;2023-04-24T06:16:21;99599.31;;;16.67;43.74
53011;BME280;42803;55.762;38.084;2023-04-24T06:18:56;99607.03;;;16.95;43.16
53011;BME280;42803;55.762;38.084;2023-04-24T06:21:26;99611.88;;;17.03;43.08
53011;BME280;42803;55.762;38.084;2023-04-24T06:24:15;99604.03;;;17.21;42.66
53011;BME280;42803;55.762;38.084;2023-04-24T06:26:44;99610.38;;;17.25;42.26
53011;BME280;42803;55.762;38.084;2023-04-24T06:29:14;99610.13;;;17.37;42.02
53011;BME280;42803;55.762;38.084;2023-04-24T06:31:43;99605.91;;;17.58;41.80
53011;BME280;42803;55.762;38.084;2023-04-24T06:34:12;99609.59;;;17.78;41.30
53011;BME280;42803;55.762;38.084;2023-04-24T06:36:41;99611.56;;;18.00;41.04
53011;BME280;42803;55.762;38.084;2023-04-24T06:39:10;99609.78;;;18.17;40.92
53011;BME280;42803;55.762;38.084;2023-04-24T06:41:41;99602.81;;;18.19;40.57
53011;BME280;42803;55.762;38.084;2023-04-24T06:44:19;99608.09;;;18.19;40.87
53011;BME280;42803;55.762;38.084;2023-04-24T06:46:48;99601.41;;;18.45;40.73
53011;BME280;42803;55.762;38.084;2023-04-24T06:49:17;99603.94;;;18.61;39.57
53011;BME280;42803;55.762;38.084;2023-04-24T06:52:05;99606.72;;;18.82;39.23
53011;BME280;42803;55.762;38.084;2023-04-24T06:54:37;99610.13;;;18.80;40.11
53011;BME280;42803;55.762;38.084;2023-04-24T06:57:08;99611.09;;;18.82;39.73
53011;BME280;42803;55.762;38.084;2023-04-24T06:59:38;99612.22;;;18.87;38.59
53011;BME280;42803;55.762;38.084;2023-04-24T07:02:07;99604.34;;;18.88;38.12
53011;BME280;42803;55.762;38.084;2023-04-24T07:04:37;99604.81;;;18.99;38.29
53011;BME280;42803;55.762;38.084;2023-04-24T07:07:06;99613.19;;;19.08;38.26
53011;BME280;42803;55.762;38.084;2023-04-24T07:09:37;99608.78;;;19.28;38.21
53011;BME280;42803;55.762;38.084;2023-04-24T07:12:10;99609.25;;;19.39;37.04
53011;BME280;42803;55.762;38.084;2023-04-24T07:14:40;99611.06;;;19.40;37.97
53011;BME280;42803;55.762;38.084;2023-04-24T07:19:57;99618.31;;;19.44;36.21
53011;BME280;42803;55.762;38.084;2023-04-24T07:22:26;99610.78;;;19.34;36.61
53011;BME280;42803;55.762;38.084;2023-04-24T07:24:55;99610.78;;;19.34;35.66
53011;BME280;42803;55.762;38.084;2023-04-24T07:27:26;99608.22;;;19.56;35.27
53011;BME280;42803;55.762;38.084;2023-04-24T07:29:55;99608.78;;;19.68;34.87
53011;BME280;42803;55.762;38.084;2023-04-24T07:32:25;99603.38;;;19.65;35.01
53011;BME280;42803;55.762;38.084;2023-04-24T07:34:54;99609.72;;;19.69;34.60
53011;BME280;42803;55.762;38.084;2023-04-24T07:37:23;99606.97;;;19.67;33.52
53011;BME280;42803;55.762;38.084;2023-04-24T07:39:53;99612.16;;;19.64;33.47
53011;BME280;42803;55.762;38.084;2023-04-24T07:42:22;99606.69;;;19.81;33.55
53011;BME280;42803;55.762;38.084;2023-04-24T07:44:52;99597.66;;;19.98;33.18
53011;BME280;42803;55.762;38.084;2023-04-24T07:47:21;99613.69;;;20.01;33.48
53011;BME280;42803;55.762;38.084;2023-04-24T07:49:51;99609.56;;;20.08;33.39
53011;BME280;42803;55.762;38.084;2023-04-24T07:52:20;99598.91;;;20.29;32.56
53011;BME280;42803;55.762;38.084;2023-04-24T07:54:50;99596.63;;;20.15;33.53
53011;BME280;42803;55.762;38.084;2023-04-24T07:57:20;99594.03;;;20.17;32.80
53011;BME280;42803;55.762;38.084;2023-04-24T07:59:49;99590.84;;;20.48;32.76
53011;BME280;42803;55.762;38.084;2023-04-24T08:02:20;99598.47;;;21.09;32.54
53011;BME280;42803;55.762;38.084;2023-04-24T08:04:54;99593.91;;;21.05;32.21
53011;BME280;42803;55.762;38.084;2023-04-24T08:07:26;99589.50;;;21.30;32.15
53011;BME280;42803;55.762;38.084;2023-04-24T08:09:55;99583.06;;;21.73;31.12
53011;BME280;42803;55.762;38.084;2023-04-24T08:12:24;99593.31;;;21.87;31.69
53011;BME280;42803;55.762;38.084;2023-04-24T08:14:53;99594.97;;;22.11;30.78
53011;BME280;42803;55.762;38.084;2023-04-24T08:17:24;99584.38;;;21.85;30.77
53011;BME280;42803;55.762;38.084;2023-04-24T08:19:53;99596.19;;;21.68;31.35
53011;BME280;42803;55.762;38.084;2023-04-24T08:22:33;99589.31;;;21.00;30.90
53011;BME280;42803;55.762;38.084;2023-04-24T08:25:03;99589.25;;;20.52;32.27
53011;BME280;42803;55.762;38.084;2023-04-24T08:27:32;99585.06;;;20.36;31.75
53011;BME280;42803;55.762;38.084;2023-04-24T08:30:02;99581.91;;;20.01;32.52
53011;BME280;42803;55.762;38.084;2023-04-24T08:35:23;99587.34;;;20.27;31.98
53011;BME280;42803;55.762;38.084;2023-04-24T08:37:53;99580.06;;;20.43;31.33
53011;BME280;42803;55.762;38.084;2023-04-24T08:40:27;99572.88;;;20.63;31.05
53011;BME280;42803;55.762;38.084;2023-04-24T08:42:56;99576.47;;;20.88;31.24
53011;BME280;42803;55.762;38.084;2023-04-24T08:45:26;99572.22;;;21.17;30.77
53011;BME280;42803;55.762;38.084;2023-04-24T08:47:57;99563.59;;;21.23;31.10
53011;BME280;42803;55.762;38.084;2023-04-24T08:50:27;99566.69;;;21.35;30.78
53011;BME280;42803;55.762;38.084;2023-04-24T08:52:57;99572.88;;;21.34;31.10
53011;BME280;42803;55.762;38.084;2023-04-24T08:55:26;99550.34;;;21.24;30.39
53011;BME280;42803;55.762;38.084;2023-04-24T08:57:59;99558.75;;;21.35;30.49
53011;BME280;42803;55.762;38.084;2023-04-24T09:00:30;99561.78;;;21.22;30.67
53011;BME280;42803;55.762;38.084;2023-04-24T09:03:01;99553.09;;;21.26;30.46
53011;BME280;42803;55.762;38.084;2023-04-24T09:05:32;99552.63;;;21.13;30.41
53011;BME280;42803;55.762;38.084;2023-04-24T09:08:21;99560.97;;;20.99;30.34
53011;BME280;42803;55.762;38.084;2023-04-24T09:10:53;99549.34;;;21.21;30.77
53011;BME280;42803;55.762;38.084;2023-04-24T09:13:22;99550.31;;;21.23;30.42
53011;BME280;42803;55.762;38.084;2023-04-24T09:15:52;99546.72;;;21.46;30.21
53011;BME280;42803;55.762;38.084;2023-04-24T09:18:23;99541.44;;;21.73;29.98
53011;BME280;42803;55.762;38.084;2023-04-24T09:21:00;99539.41;;;21.39;30.66
53011;BME280;42803;55.762;38.084;2023-04-24T09:23:31;99540.44;;;21.18;30.43
53011;BME280;42803;55.762;38.084;2023-04-24T09:26:02;99546.22;;;21.32;30.43
53011;BME280;42803;55.762;38.084;2023-04-24T09:28:36;99539.66;;;20.97;30.44
53011;BME280;42803;55.762;38.084;2023-04-24T09:31:07;99541.31;;;20.69;30.75
53011;BME280;42803;55.762;38.084;2023-04-24T09:33:39;99545.31;;;21.06;31.01
53011;BME280;42803;55.762;38.084;2023-04-24T09:36:08;99544.16;;;20.76;30.81
53011;BME280;42803;55.762;38.084;2023-04-24T09:38:38;99538.78;;;20.73;30.59
53011;BME280;42803;55.762;38.084;2023-04-24T09:41:08;99535.03;;;20.91;30.50
53011;BME280;42803;55.762;38.084;2023-04-24T09:43:42;99536.63;;;20.62;31.44
53011;BME280;42803;55.762;38.084;2023-04-24T09:46:11;99533.84;;;20.37;31.02
53011;BME280;42803;55.762;38.084;2023-04-24T09:48:42;99525.50;;;20.73;30.25
53011;BME280;42803;55.762;38.084;2023-04-24T09:51:12;99531.06;;;20.56;30.87
53011;BME280;42803;55.762;38.084;2023-04-24T09:53:45;99519.75;;;20.38;30.75
53011;BME280;42803;55.762;38.084;2023-04-24T09:56:22;99515.38;;;20.16;31.29
53011;BME280;42803;55.762;38.084;2023-04-24T09:58:54;99505.09;;;20.48;30.67
53011;BME280;42803;55.762;38.084;2023-04-24T10:01:30;99519.16;;;20.93;30.76
53011;BME280;42803;55.762;38.084;2023-04-24T10:04:01;99517.56;;;21.48;30.27
53011;BME280;42803;55.762;38.084;2023-04-24T10:06:32;99509.91;;;21.84;29.68
53011;BME280;42803;55.762;38.084;2023-04-24T10:09:02;99502.69;;;21.80;29.13
53011;BME280;42803;55.762;38.084;2023-04-24T10:11:32;99511.06;;;21.92;29.42
53011;BME280;42803;55.762;38.084;2023-04-24T10:14:02;99506.53;;;21.62;29.32
53011;BME280;42803;55.762;38.084;2023-04-24T10:16:31;99515.09;;;21.28;29.92
53011;BME280;42803;55.762;38.084;2023-04-24T10:19:02;99505.84;;;21.41;29.97
53011;BME280;42803;55.762;38.084;2023-04-24T10:21:32;99502.19;;;21.13;29.49
53011;BME280;42803;55.762;38.084;2023-04-24T10:24:01;99506.75;;;20.92;30.56
53011;BME280;42803;55.762;38.084;2023-04-24T10:26:32;99499.97;;;21.00;30.03
53011;BME280;42803;55.762;38.084;2023-04-24T10:29:06;99496.16;;;20.92;30.18
53011;BME280;42803;55.762;38.084;2023-04-24T10:31:37;99504.06;;;20.66;30.36
53011;BME280;42803;55.762;38.084;2023-04-24T10:34:09;99496.84;;;20.40;30.19
53011;BME280;42803;55.762;38.084;2023-04-24T10:36:41;99498.41;;;20.35;30.44
53011;BME280;42803;55.762;38.084;2023-04-24T10:39:13;99491.22;;;20.79;29.94
53011;BME280;42803;55.762;38.084;2023-04-24T10:41:44;99480.38;;;21.48;29.81
53011;BME280;42803;55.762;38.084;2023-04-24T10:44:15;99486.28;;;21.93;28.97
53011;BME280;42803;55.762;38.084;2023-04-24T10:46:46;99479.41;;;22.28;29.14
53011;BME280;42803;55.762;38.084;2023-04-24T10:49:17;99477.69;;;22.59;28.60
53011;BME280;42803;55.762;38.084;2023-04-24T10:52:02;99474.56;;;23.05;28.37
53011;BME280;42803;55.762;38.084;2023-04-24T10:54:42;99477.47;;;23.15;27.77
53011;BME280;42803;55.762;38.084;2023-04-24T10:57:28;99480.28;;;22.89;27.91
53011;BME280;42803;55.762;38.084;2023-04-24T11:00:18;99467.31;;;22.70;27.79
53011;BME280;42803;55.762;38.084;2023-04-24T11:02:48;99475.53;;;22.47;28.26
53011;BME280;42803;55.762;38.084;2023-04-24T11:05:22;99474.81;;;22.23;28.53
53011;BME280;42803;55.762;38.084;2023-04-24T11:08:09;99471.91;;;22.13;28.20
53011;BME280;42803;55.762;38.084;2023-04-24T11:10:40;99465.72;;;22.14;28.49
53011;BME280;42803;55.762;38.084;2023-04-24T11:13:10;99461.44;;;22.20;28.58
53011;BME280;42803;55.762;38.084;2023-04-24T11:15:41;99464.75;;;21.84;28.66
53011;BME280;42803;55.762;38.084;2023-04-24T11:18:14;99459.16;;;21.22;29.18
53011;BME280;42803;55.762;38.084;2023-04-24T11:20:46;99460.16;;;21.00;29.30
53011;BME280;42803;55.762;38.084;2023-04-24T11:23:15;99457.13;;;20.89;29.42
53011;BME280;42803;55.762;38.084;2023-04-24T11:26:11;99447.75;;;20.99;29.39
53011;BME280;42803;55.762;38.084;2023-04-24T11:28:46;99447.44;;;21.41;29.31
53011;BME280;42803;55.762;38.084;2023-04-24T11:31:39;99445.38;;;21.88;28.74
53011;BME280;42803;55.762;38.084;2023-04-24T11:34:11;99442.69;;;22.15;28.25
53011;BME280;42803;55.762;38.084;2023-04-24T11:36:45;99433.91;;;22.18;28.59
53011;BME280;42803;55.762;38.084;2023-04-24T11:39:14;99440.00;;;22.13;28.19
53011;BME280;42803;55.762;38.084;2023-04-24T11:41:44;99432.69;;;22.08;28.70
53011;BME280;42803;55.762;38.084;2023-04-24T11:44:15;99434.75;;;21.88;28.46
53011;BME280;42803;55.762;38.084;2023-04-24T11:46:49;99429.34;;;21.56;28.33
53011;BME280;42803;55.762;38.084;2023-04-24T11:49:18;99423.69;;;21.74;28.97
53011;BME280;42803;55.762;38.084;2023-04-24T11:51:49;99416.13;;;21.59;28.92
53011;BME280;42803;55.762;38.084;2023-04-24T11:54:20;99418.63;;;21.02;29.05
53011;BME280;42803;55.762;38.084;2023-04-24T11:56:50;99410.38;;;21.18;29.04
53011;BME280;42803;55.762;38.084;2023-04-24T11:59:20;99411.91;;;21.37;29.00
53011;BME280;42803;55.762;38.084;2023-04-24T12:01:49;99409.56;;;21.48;28.59
53011;BME280;42803;55.762;38.084;2023-04-24T12:04:18;99401.94;;;21.59;28.47
53011;BME280;42803;55.762;38.084;2023-04-24T12:07:01;99406.47;;;21.61;28.68
53011;BME280;42803;55.762;38.084;2023-04-24T12:09:40;99420.00;;;21.69;28.20
53011;BME280;42803;55.762;38.084;2023-04-24T12:12:11;99406.25;;;21.55;28.17
53011;BME280;42803;55.762;38.084;2023-04-24T12:14:44;99404.31;;;21.50;27.86
53011;BME280;42803;55.762;38.084;2023-04-24T12:17:14;99392.81;;;21.49;28.09
53011;BME280;42803;55.762;38.084;2023-04-24T12:19:47;99383.97;;;21.50;27.76
53011;BME280;42803;55.762;38.084;2023-04-24T12:22:18;99397.03;;;21.71;28.14
53011;BME280;42803;55.762;38.084;2023-04-24T12:24:57;99393.09;;;21.87;27.67
53011;BME280;42803;55.762;38.084;2023-04-24T12:27:31;99394.75;;;21.83;27.85
53011;BME280;42803;55.762;38.084;2023-04-24T12:30:03;99399.91;;;21.50;27.83
53011;BME280;42803;55.762;38.084;2023-04-24T12:32:33;99400.03;;;21.53;27.96
53011;BME280;42803;55.762;38.084;2023-04-24T12:35:04;99393.19;;;21.07;28.66
53011;BME280;42803;55.762;38.084;2023-04-24T12:37:36;99394.81;;;20.78;28.56
53011;BME280;42803;55.762;38.084;2023-04-24T12:40:08;99392.75;;;20.69;28.91
53011;BME280;42803;55.762;38.084;2023-04-24T12:42:42;99391.84;;;20.94;28.77
53011;BME280;42803;55.762;38.084;2023-04-24T12:45:12;99383.41;;;21.06;28.40
53011;BME280;42803;55.762;38.084;2023-04-24T12:52:26;99385.06;;;21.30;28.28
53011;BME280;42803;55.762;38.084;2023-04-24T12:54:58;99375.53;;;21.35;28.24
53011;BME280;42803;55.762;38.084;2023-04-24T12:57:30;99375.72;;;21.41;27.77
53011;BME280;42803;55.762;38.084;2023-04-24T12:59:59;99374.03;;;21.72;28.09
53011;BME280;42803;55.762;38.084;2023-04-24T13:02:34;99362.59;;;22.04;27.74
53011;BME280;42803;55.762;38.084;2023-04-24T13:05:05;99371.03;;;22.20;27.64
53011;BME280;42803;55.762;38.084;2023-04-24T13:07:34;99364.69;;;22.46;26.96
53011;BME280;42803;55.762;38.084;2023-04-24T13:10:06;99364.78;;;22.49;27.06
53011;BME280;42803;55.762;38.084;2023-04-24T13:17:26;99370.78;;;21.82;27.42
53011;BME280;42803;55.762;38.084;2023-04-24T13:19:55;99359.59;;;21.63;27.61
53011;BME280;42803;55.762;38.084;2023-04-24T13:22:24;99365.34;;;21.22;28.02
53011;BME280;42803;55.762;38.084;2023-04-24T13:24:54;99362.41;;;20.87;28.50
53011;BME280;42803;55.762;38.084;2023-04-24T13:27:25;99361.34;;;20.56;28.57
53011;BME280;42803;55.762;38.084;2023-04-24T13:29:54;99355.28;;;20.35;28.90
53011;BME280;42803;55.762;38.084;2023-04-24T13:32:23;99349.41;;;20.45;28.74
53011;BME280;42803;55.762;38.084;2023-04-24T13:34:53;99336.66;;;20.57;28.67